KHOB

Lea County Regional Airport

Hobbs, New Mexico, USA
METAR KHOB 201850Z 04009G15KT 10SM SKC 20/09 A3039
Observed Flight Rules
Oct-20 @ 18:50 UTC (30 minutes ago) Visual Flight Rules
Wind Visibility Clouds
40° at 9 knots
 Gusting to 15 knots
10 miles
  • Clear skies
Temperatures Readings
Current 20°C / 68°F
Dewpoint 9°C / 48°F
Humidity 49%
Altimeter 30.39" Hg
Pressure 1029 hPa
Elevation 1115
METAR KHOB 201850Z 04009G15KT 10SM SKC 20/09 A3039
Observed Flight Rules
Oct-20 @ 18:50 UTC
(30 minutes ago)
VFR
Wind Visibility
40° at 9 knots
 Gusting to 15 knots
10 miles
Clouds
  • Clear skies
Temperature Dewpoint
20°C / 68°F 9°C / 48°F
Humidity Altimeter Pressure
49% 30.39" Hg 1029 hPa